sensor_id;sensor_type;location;lat;lon;timestamp;P1;durP1;ratioP1;P2;durP2;ratioP2
57199;SDS011;43061;43.902;22.266;2022-07-06T00:01:38;10.13;;;6.60;;
57199;SDS011;43061;43.902;22.266;2022-07-06T00:04:04;11.18;;;6.68;;
57199;SDS011;43061;43.902;22.266;2022-07-06T00:06:30;11.25;;;6.50;;
57199;SDS011;43061;43.902;22.266;2022-07-06T00:08:56;12.27;;;6.43;;
57199;SDS011;43061;43.902;22.266;2022-07-06T00:11:23;16.10;;;6.60;;
57199;SDS011;43061;43.902;22.266;2022-07-06T00:13:49;10.40;;;6.57;;
57199;SDS011;43061;43.902;22.266;2022-07-06T00:16:16;12.63;;;7.40;;
57199;SDS011;43061;43.902;22.266;2022-07-06T00:18:42;14.65;;;7.07;;
57199;SDS011;43061;43.902;22.266;2022-07-06T00:21:08;11.70;;;7.90;;
57199;SDS011;43061;43.902;22.266;2022-07-06T00:23:34;11.05;;;7.47;;
57199;SDS011;43061;43.902;22.266;2022-07-06T00:26:00;10.38;;;7.30;;
57199;SDS011;43061;43.902;22.266;2022-07-06T00:28:26;11.43;;;7.30;;
57199;SDS011;43061;43.902;22.266;2022-07-06T00:30:53;10.75;;;7.53;;
57199;SDS011;43061;43.902;22.266;2022-07-06T00:33:19;10.95;;;7.13;;
57199;SDS011;43061;43.902;22.266;2022-07-06T00:35:45;10.27;;;7.28;;
57199;SDS011;43061;43.902;22.266;2022-07-06T00:38:11;12.20;;;7.45;;
57199;SDS011;43061;43.902;22.266;2022-07-06T00:40:38;10.50;;;7.57;;
57199;SDS011;43061;43.902;22.266;2022-07-06T00:43:04;14.50;;;7.55;;
57199;SDS011;43061;43.902;22.266;2022-07-06T00:45:30;11.38;;;7.28;;
57199;SDS011;43061;43.902;22.266;2022-07-06T00:47:56;11.48;;;7.28;;
57199;SDS011;43061;43.902;22.266;2022-07-06T00:50:22;10.70;;;6.90;;
57199;SDS011;43061;43.902;22.266;2022-07-06T00:55:15;11.10;;;7.13;;
57199;SDS011;43061;43.902;22.266;2022-07-06T00:57:42;11.07;;;7.60;;
57199;SDS011;43061;43.902;22.266;2022-07-06T01:00:09;11.85;;;7.15;;
57199;SDS011;43061;43.902;22.266;2022-07-06T01:02:36;8.07;;;6.05;;
57199;SDS011;43061;43.902;22.266;2022-07-06T01:05:05;10.18;;;6.30;;
57199;SDS011;43061;43.902;22.266;2022-07-06T01:07:32;11.23;;;6.47;;
57199;SDS011;43061;43.902;22.266;2022-07-06T01:09:59;10.50;;;6.50;;
57199;SDS011;43061;43.902;22.266;2022-07-06T01:12:25;11.13;;;5.68;;
57199;SDS011;43061;43.902;22.266;2022-07-06T01:14:52;9.73;;;5.80;;
57199;SDS011;43061;43.902;22.266;2022-07-06T01:17:18;11.23;;;6.22;;
57199;SDS011;43061;43.902;22.266;2022-07-06T01:19:44;9.65;;;6.00;;
57199;SDS011;43061;43.902;22.266;2022-07-06T01:22:11;9.38;;;6.60;;
57199;SDS011;43061;43.902;22.266;2022-07-06T01:24:37;12.63;;;6.70;;
57199;SDS011;43061;43.902;22.266;2022-07-06T01:27:04;11.55;;;6.38;;
57199;SDS011;43061;43.902;22.266;2022-07-06T01:29:30;10.38;;;7.07;;
57199;SDS011;43061;43.902;22.266;2022-07-06T01:31:57;10.02;;;6.55;;
57199;SDS011;43061;43.902;22.266;2022-07-06T01:34:23;14.85;;;7.20;;
57199;SDS011;43061;43.902;22.266;2022-07-06T01:36:49;11.82;;;7.05;;
57199;SDS011;43061;43.902;22.266;2022-07-06T01:39:15;11.50;;;6.70;;
57199;SDS011;43061;43.902;22.266;2022-07-06T01:41:41;10.63;;;6.82;;
57199;SDS011;43061;43.902;22.266;2022-07-06T01:44:08;10.13;;;6.45;;
57199;SDS011;43061;43.902;22.266;2022-07-06T01:46:34;12.60;;;6.53;;
57199;SDS011;43061;43.902;22.266;2022-07-06T01:49:00;10.60;;;6.68;;
57199;SDS011;43061;43.902;22.266;2022-07-06T01:51:26;11.45;;;6.65;;
57199;SDS011;43061;43.902;22.266;2022-07-06T01:53:52;9.75;;;6.90;;
57199;SDS011;43061;43.902;22.266;2022-07-06T01:56:19;9.23;;;6.90;;
57199;SDS011;43061;43.902;22.266;2022-07-06T01:58:48;10.98;;;6.72;;
57199;SDS011;43061;43.902;22.266;2022-07-06T02:01:18;9.90;;;7.03;;
57199;SDS011;43061;43.902;22.266;2022-07-06T02:03:45;13.32;;;6.88;;
57199;SDS011;43061;43.902;22.266;2022-07-06T02:06:12;11.80;;;6.68;;
57199;SDS011;43061;43.902;22.266;2022-07-06T02:08:38;10.52;;;6.82;;
57199;SDS011;43061;43.902;22.266;2022-07-06T02:11:05;9.82;;;6.47;;
57199;SDS011;43061;43.902;22.266;2022-07-06T02:13:31;9.07;;;6.65;;
57199;SDS011;43061;43.902;22.266;2022-07-06T02:15:57;9.73;;;6.47;;
57199;SDS011;43061;43.902;22.266;2022-07-06T02:18:23;13.02;;;6.68;;
57199;SDS011;43061;43.902;22.266;2022-07-06T02:20:50;13.15;;;6.88;;
57199;SDS011;43061;43.902;22.266;2022-07-06T02:23:16;12.07;;;6.55;;
57199;SDS011;43061;43.902;22.266;2022-07-06T02:25:42;12.10;;;6.22;;
57199;SDS011;43061;43.902;22.266;2022-07-06T02:28:08;9.40;;;6.60;;
57199;SDS011;43061;43.902;22.266;2022-07-06T02:30:34;10.75;;;6.40;;
57199;SDS011;43061;43.902;22.266;2022-07-06T02:33:00;11.98;;;6.63;;
57199;SDS011;43061;43.902;22.266;2022-07-06T02:35:26;11.10;;;6.60;;
57199;SDS011;43061;43.902;22.266;2022-07-06T02:37:53;9.35;;;6.30;;
57199;SDS011;43061;43.902;22.266;2022-07-06T02:40:19;9.25;;;6.70;;
57199;SDS011;43061;43.902;22.266;2022-07-06T02:42:45;12.32;;;6.55;;
57199;SDS011;43061;43.902;22.266;2022-07-06T02:45:12;17.50;;;6.93;;
57199;SDS011;43061;43.902;22.266;2022-07-06T02:47:38;11.75;;;6.82;;
57199;SDS011;43061;43.902;22.266;2022-07-06T02:50:04;9.05;;;6.50;;
57199;SDS011;43061;43.902;22.266;2022-07-06T02:52:30;11.20;;;6.93;;
57199;SDS011;43061;43.902;22.266;2022-07-06T02:54:57;11.65;;;6.45;;
57199;SDS011;43061;43.902;22.266;2022-07-06T02:57:23;10.07;;;6.57;;
57199;SDS011;43061;43.902;22.266;2022-07-06T02:59:49;9.90;;;6.82;;
57199;SDS011;43061;43.902;22.266;2022-07-06T03:02:18;9.63;;;7.07;;
57199;SDS011;43061;43.902;22.266;2022-07-06T03:04:44;13.35;;;7.35;;
57199;SDS011;43061;43.902;22.266;2022-07-06T03:07:10;13.45;;;7.43;;
57199;SDS011;43061;43.902;22.266;2022-07-06T03:09:36;10.63;;;7.15;;
57199;SDS011;43061;43.902;22.266;2022-07-06T03:12:03;13.63;;;7.90;;
57199;SDS011;43061;43.902;22.266;2022-07-06T03:14:29;10.65;;;7.15;;
57199;SDS011;43061;43.902;22.266;2022-07-06T03:16:55;10.65;;;7.15;;
57199;SDS011;43061;43.902;22.266;2022-07-06T03:19:21;14.20;;;7.30;;
57199;SDS011;43061;43.902;22.266;2022-07-06T03:21:47;9.43;;;6.68;;
57199;SDS011;43061;43.902;22.266;2022-07-06T03:24:13;13.43;;;7.30;;
57199;SDS011;43061;43.902;22.266;2022-07-06T03:26:39;14.45;;;7.75;;
57199;SDS011;43061;43.902;22.266;2022-07-06T03:29:06;11.48;;;7.18;;
57199;SDS011;43061;43.902;22.266;2022-07-06T03:31:32;15.15;;;7.60;;
57199;SDS011;43061;43.902;22.266;2022-07-06T03:33:58;13.27;;;7.70;;
57199;SDS011;43061;43.902;22.266;2022-07-06T03:36:24;10.35;;;6.93;;
57199;SDS011;43061;43.902;22.266;2022-07-06T03:38:50;12.93;;;7.05;;
57199;SDS011;43061;43.902;22.266;2022-07-06T03:41:16;10.60;;;6.97;;
57199;SDS011;43061;43.902;22.266;2022-07-06T03:43:42;10.77;;;7.40;;
57199;SDS011;43061;43.902;22.266;2022-07-06T03:46:08;12.18;;;7.60;;
57199;SDS011;43061;43.902;22.266;2022-07-06T03:48:35;12.73;;;7.75;;
57199;SDS011;43061;43.902;22.266;2022-07-06T03:51:01;12.25;;;7.45;;
57199;SDS011;43061;43.902;22.266;2022-07-06T03:53:27;13.75;;;7.35;;
57199;SDS011;43061;43.902;22.266;2022-07-06T03:55:53;11.10;;;7.60;;
57199;SDS011;43061;43.902;22.266;2022-07-06T03:58:37;13.45;;;8.13;;
57199;SDS011;43061;43.902;22.266;2022-07-06T04:01:03;12.48;;;7.95;;
57199;SDS011;43061;43.902;22.266;2022-07-06T04:03:30;12.38;;;7.28;;
57199;SDS011;43061;43.902;22.266;2022-07-06T04:05:56;13.32;;;7.55;;
57199;SDS011;43061;43.902;22.266;2022-07-06T04:08:22;10.18;;;7.38;;
57199;SDS011;43061;43.902;22.266;2022-07-06T04:10:48;11.18;;;7.60;;
57199;SDS011;43061;43.902;22.266;2022-07-06T04:13:14;11.02;;;8.20;;
57199;SDS011;43061;43.902;22.266;2022-07-06T04:15:40;11.57;;;8.20;;
57199;SDS011;43061;43.902;22.266;2022-07-06T04:18:07;14.30;;;8.23;;
57199;SDS011;43061;43.902;22.266;2022-07-06T04:20:33;12.55;;;8.73;;
57199;SDS011;43061;43.902;22.266;2022-07-06T04:23:02;13.85;;;8.20;;
57199;SDS011;43061;43.902;22.266;2022-07-06T04:25:28;12.95;;;9.07;;
57199;SDS011;43061;43.902;22.266;2022-07-06T04:27:54;13.20;;;8.23;;
57199;SDS011;43061;43.902;22.266;2022-07-06T04:30:20;12.82;;;8.00;;
57199;SDS011;43061;43.902;22.266;2022-07-06T04:32:47;14.73;;;8.43;;
57199;SDS011;43061;43.902;22.266;2022-07-06T04:35:13;14.93;;;8.38;;
57199;SDS011;43061;43.902;22.266;2022-07-06T04:37:39;11.32;;;8.10;;
57199;SDS011;43061;43.902;22.266;2022-07-06T04:40:05;13.95;;;8.20;;
57199;SDS011;43061;43.902;22.266;2022-07-06T04:42:31;14.95;;;8.30;;
57199;SDS011;43061;43.902;22.266;2022-07-06T04:44:57;11.40;;;7.93;;
57199;SDS011;43061;43.902;22.266;2022-07-06T04:47:24;11.90;;;8.25;;
57199;SDS011;43061;43.902;22.266;2022-07-06T04:49:50;13.65;;;8.35;;
57199;SDS011;43061;43.902;22.266;2022-07-06T04:52:16;19.45;;;10.50;;
57199;SDS011;43061;43.902;22.266;2022-07-06T04:54:42;13.30;;;9.65;;
57199;SDS011;43061;43.902;22.266;2022-07-06T04:57:08;13.35;;;9.75;;
57199;SDS011;43061;43.902;22.266;2022-07-06T04:59:35;14.30;;;10.20;;
57199;SDS011;43061;43.902;22.266;2022-07-06T05:02:01;17.13;;;10.68;;
57199;SDS011;43061;43.902;22.266;2022-07-06T05:04:27;13.98;;;10.48;;
57199;SDS011;43061;43.902;22.266;2022-07-06T05:06:53;14.98;;;11.18;;
57199;SDS011;43061;43.902;22.266;2022-07-06T05:09:19;18.73;;;10.88;;
57199;SDS011;43061;43.902;22.266;2022-07-06T05:11:45;15.57;;;10.43;;
57199;SDS011;43061;43.902;22.266;2022-07-06T05:14:11;15.02;;;10.75;;
57199;SDS011;43061;43.902;22.266;2022-07-06T05:16:38;13.77;;;10.45;;
57199;SDS011;43061;43.902;22.266;2022-07-06T05:19:04;16.42;;;10.60;;
57199;SDS011;43061;43.902;22.266;2022-07-06T05:21:30;14.70;;;10.30;;
57199;SDS011;43061;43.902;22.266;2022-07-06T05:23:56;15.00;;;10.27;;
57199;SDS011;43061;43.902;22.266;2022-07-06T05:26:22;13.98;;;9.95;;
57199;SDS011;43061;43.902;22.266;2022-07-06T05:28:48;13.52;;;9.82;;
57199;SDS011;43061;43.902;22.266;2022-07-06T05:31:14;12.45;;;9.80;;
57199;SDS011;43061;43.902;22.266;2022-07-06T05:33:40;15.55;;;10.05;;
57199;SDS011;43061;43.902;22.266;2022-07-06T05:36:07;15.15;;;10.05;;
57199;SDS011;43061;43.902;22.266;2022-07-06T05:38:33;15.07;;;10.95;;
57199;SDS011;43061;43.902;22.266;2022-07-06T05:40:59;13.65;;;11.80;;
57199;SDS011;43061;43.902;22.266;2022-07-06T05:43:25;14.05;;;11.82;;
57199;SDS011;43061;43.902;22.266;2022-07-06T05:45:51;16.23;;;11.80;;
57199;SDS011;43061;43.902;22.266;2022-07-06T05:48:18;12.45;;;11.15;;
57199;SDS011;43061;43.902;22.266;2022-07-06T05:51:02;12.93;;;11.00;;
57199;SDS011;43061;43.902;22.266;2022-07-06T05:53:28;13.52;;;10.38;;
57199;SDS011;43061;43.902;22.266;2022-07-06T05:55:55;13.85;;;10.70;;
57199;SDS011;43061;43.902;22.266;2022-07-06T05:58:21;12.57;;;10.10;;
57199;SDS011;43061;43.902;22.266;2022-07-06T06:00:49;12.80;;;9.75;;
57199;SDS011;43061;43.902;22.266;2022-07-06T06:03:15;11.00;;;9.40;;
57199;SDS011;43061;43.902;22.266;2022-07-06T06:05:41;13.50;;;10.75;;
57199;SDS011;43061;43.902;22.266;2022-07-06T06:08:07;12.57;;;10.38;;
57199;SDS011;43061;43.902;22.266;2022-07-06T06:10:34;14.30;;;10.82;;
57199;SDS011;43061;43.902;22.266;2022-07-06T06:13:00;16.38;;;11.23;;
57199;SDS011;43061;43.902;22.266;2022-07-06T06:15:26;14.73;;;10.68;;
57199;SDS011;43061;43.902;22.266;2022-07-06T06:17:52;15.57;;;10.88;;
57199;SDS011;43061;43.902;22.266;2022-07-06T06:20:18;12.60;;;10.70;;
57199;SDS011;43061;43.902;22.266;2022-07-06T06:22:51;17.10;;;11.40;;
57199;SDS011;43061;43.902;22.266;2022-07-06T06:25:19;15.63;;;11.05;;
57199;SDS011;43061;43.902;22.266;2022-07-06T06:27:45;13.80;;;10.18;;
57199;SDS011;43061;43.902;22.266;2022-07-06T06:30:12;13.25;;;10.18;;
57199;SDS011;43061;43.902;22.266;2022-07-06T06:32:38;16.25;;;10.15;;
57199;SDS011;43061;43.902;22.266;2022-07-06T06:35:05;14.70;;;10.20;;
57199;SDS011;43061;43.902;22.266;2022-07-06T06:37:31;12.20;;;10.30;;
57199;SDS011;43061;43.902;22.266;2022-07-06T06:39:59;14.20;;;9.90;;
57199;SDS011;43061;43.902;22.266;2022-07-06T06:42:25;12.43;;;10.30;;
57199;SDS011;43061;43.902;22.266;2022-07-06T06:44:51;13.10;;;10.45;;
57199;SDS011;43061;43.902;22.266;2022-07-06T06:47:17;14.27;;;10.73;;
57199;SDS011;43061;43.902;22.266;2022-07-06T06:49:45;14.35;;;11.95;;
57199;SDS011;43061;43.902;22.266;2022-07-06T06:52:12;15.88;;;12.77;;
57199;SDS011;43061;43.902;22.266;2022-07-06T06:54:38;14.25;;;12.75;;
57199;SDS011;43061;43.902;22.266;2022-07-06T06:57:04;15.27;;;13.27;;
57199;SDS011;43061;43.902;22.266;2022-07-06T06:59:31;17.52;;;13.43;;
57199;SDS011;43061;43.902;22.266;2022-07-06T07:01:57;18.05;;;13.05;;
57199;SDS011;43061;43.902;22.266;2022-07-06T07:04:23;16.23;;;13.45;;
57199;SDS011;43061;43.902;22.266;2022-07-06T07:06:49;17.27;;;12.82;;
57199;SDS011;43061;43.902;22.266;2022-07-06T07:09:15;14.50;;;12.88;;
57199;SDS011;43061;43.902;22.266;2022-07-06T07:11:42;18.70;;;14.00;;
57199;SDS011;43061;43.902;22.266;2022-07-06T07:14:08;15.15;;;13.55;;
57199;SDS011;43061;43.902;22.266;2022-07-06T07:16:34;14.73;;;12.57;;
57199;SDS011;43061;43.902;22.266;2022-07-06T07:19:00;16.33;;;13.55;;
57199;SDS011;43061;43.902;22.266;2022-07-06T07:21:26;16.45;;;13.45;;
57199;SDS011;43061;43.902;22.266;2022-07-06T07:23:52;16.63;;;13.75;;
57199;SDS011;43061;43.902;22.266;2022-07-06T07:26:18;15.20;;;13.60;;
57199;SDS011;43061;43.902;22.266;2022-07-06T07:28:44;14.77;;;13.18;;
57199;SDS011;43061;43.902;22.266;2022-07-06T07:31:11;18.45;;;13.25;;
57199;SDS011;43061;43.902;22.266;2022-07-06T07:33:37;15.30;;;12.77;;
57199;SDS011;43061;43.902;22.266;2022-07-06T07:36:04;13.95;;;12.55;;
57199;SDS011;43061;43.902;22.266;2022-07-06T07:38:30;14.75;;;13.00;;
57199;SDS011;43061;43.902;22.266;2022-07-06T07:40:56;15.13;;;12.45;;
57199;SDS011;43061;43.902;22.266;2022-07-06T07:43:22;15.57;;;12.90;;
57199;SDS011;43061;43.902;22.266;2022-07-06T07:45:49;13.43;;;11.75;;
57199;SDS011;43061;43.902;22.266;2022-07-06T07:48:15;13.23;;;11.82;;
57199;SDS011;43061;43.902;22.266;2022-07-06T07:50:41;12.60;;;11.30;;
57199;SDS011;43061;43.902;22.266;2022-07-06T07:53:08;12.18;;;10.98;;
57199;SDS011;43061;43.902;22.266;2022-07-06T07:55:34;11.55;;;10.45;;
57199;SDS011;43061;43.902;22.266;2022-07-06T07:58:06;13.05;;;11.25;;
57199;SDS011;43061;43.902;22.266;2022-07-06T08:00:32;12.82;;;10.55;;
57199;SDS011;43061;43.902;22.266;2022-07-06T08:02:58;12.48;;;10.57;;
57199;SDS011;43061;43.902;22.266;2022-07-06T08:05:25;11.88;;;10.60;;
57199;SDS011;43061;43.902;22.266;2022-07-06T08:07:52;12.82;;;10.80;;
57199;SDS011;43061;43.902;22.266;2022-07-06T08:10:18;11.30;;;10.20;;
57199;SDS011;43061;43.902;22.266;2022-07-06T08:12:45;13.25;;;10.40;;
57199;SDS011;43061;43.902;22.266;2022-07-06T08:15:11;12.48;;;10.52;;
57199;SDS011;43061;43.902;22.266;2022-07-06T08:17:37;11.27;;;10.05;;
57199;SDS011;43061;43.902;22.266;2022-07-06T08:20:05;12.38;;;10.23;;
57199;SDS011;43061;43.902;22.266;2022-07-06T08:22:31;11.65;;;9.82;;
57199;SDS011;43061;43.902;22.266;2022-07-06T08:24:57;11.60;;;10.40;;
57199;SDS011;43061;43.902;22.266;2022-07-06T08:27:24;11.82;;;10.35;;
57199;SDS011;43061;43.902;22.266;2022-07-06T08:29:50;10.52;;;9.52;;
57199;SDS011;43061;43.902;22.266;2022-07-06T08:32:16;10.88;;;9.77;;
57199;SDS011;43061;43.902;22.266;2022-07-06T08:34:42;11.48;;;10.27;;
57199;SDS011;43061;43.902;22.266;2022-07-06T08:37:09;10.85;;;9.75;;
57199;SDS011;43061;43.902;22.266;2022-07-06T08:39:35;11.40;;;9.77;;
57199;SDS011;43061;43.902;22.266;2022-07-06T08:42:02;10.50;;;9.07;;
57199;SDS011;43061;43.902;22.266;2022-07-06T08:44:37;11.75;;;9.23;;
57199;SDS011;43061;43.902;22.266;2022-07-06T08:47:04;11.05;;;8.07;;
57199;SDS011;43061;43.902;22.266;2022-07-06T08:49:34;9.00;;;7.65;;
57199;SDS011;43061;43.902;22.266;2022-07-06T08:52:00;9.07;;;7.60;;
57199;SDS011;43061;43.902;22.266;2022-07-06T08:54:28;9.20;;;7.35;;
57199;SDS011;43061;43.902;22.266;2022-07-06T08:56:54;9.60;;;6.32;;
57199;SDS011;43061;43.902;22.266;2022-07-06T08:59:20;9.25;;;6.40;;
57199;SDS011;43061;43.902;22.266;2022-07-06T09:01:47;8.38;;;5.35;;
57199;SDS011;43061;43.902;22.266;2022-07-06T09:04:15;6.90;;;5.63;;
57199;SDS011;43061;43.902;22.266;2022-07-06T09:06:42;7.85;;;6.55;;
57199;SDS011;43061;43.902;22.266;2022-07-06T09:11:44;8.48;;;6.00;;
57199;SDS011;43061;43.902;22.266;2022-07-06T09:14:10;8.70;;;6.63;;
57199;SDS011;43061;43.902;22.266;2022-07-06T09:16:36;6.65;;;5.97;;
57199;SDS011;43061;43.902;22.266;2022-07-06T09:19:02;40.88;;;8.02;;
57199;SDS011;43061;43.902;22.266;2022-07-06T09:21:29;7.03;;;5.88;;
57199;SDS011;43061;43.902;22.266;2022-07-06T09:23:57;6.82;;;5.72;;
57199;SDS011;43061;43.902;22.266;2022-07-06T09:26:24;7.97;;;6.25;;
57199;SDS011;43061;43.902;22.266;2022-07-06T09:28:51;10.65;;;5.60;;
57199;SDS011;43061;43.902;22.266;2022-07-06T09:31:17;6.55;;;4.60;;
57199;SDS011;43061;43.902;22.266;2022-07-06T09:39:15;5.30;;;3.90;;
57199;SDS011;43061;43.902;22.266;2022-07-06T09:41:41;5.80;;;3.95;;
57199;SDS011;43061;43.902;22.266;2022-07-06T09:44:08;15.13;;;4.90;;
57199;SDS011;43061;43.902;22.266;2022-07-06T09:46:42;8.75;;;4.45;;
57199;SDS011;43061;43.902;22.266;2022-07-06T09:49:08;6.88;;;4.50;;
57199;SDS011;43061;43.902;22.266;2022-07-06T09:51:38;7.30;;;4.50;;
57199;SDS011;43061;43.902;22.266;2022-07-06T09:54:07;5.20;;;3.88;;
57199;SDS011;43061;43.902;22.266;2022-07-06T09:56:37;4.93;;;3.40;;
57199;SDS011;43061;43.902;22.266;2022-07-06T09:59:14;4.85;;;3.40;;
57199;SDS011;43061;43.902;22.266;2022-07-06T10:01:41;8.30;;;3.17;;
57199;SDS011;43061;43.902;22.266;2022-07-06T10:04:08;5.63;;;3.05;;
57199;SDS011;43061;43.902;22.266;2022-07-06T10:06:35;5.43;;;2.53;;
57199;SDS011;43061;43.902;22.266;2022-07-06T10:09:02;7.38;;;2.90;;
57199;SDS011;43061;43.902;22.266;2022-07-06T10:11:30;6.70;;;3.00;;
57199;SDS011;43061;43.902;22.266;2022-07-06T10:13:59;5.60;;;2.80;;
57199;SDS011;43061;43.902;22.266;2022-07-06T10:16:26;5.18;;;2.70;;
57199;SDS011;43061;43.902;22.266;2022-07-06T10:18:53;6.60;;;3.20;;
57199;SDS011;43061;43.902;22.266;2022-07-06T10:21:23;3.85;;;2.50;;
57199;SDS011;43061;43.902;22.266;2022-07-06T10:23:49;6.97;;;2.85;;
57199;SDS011;43061;43.902;22.266;2022-07-06T10:26:16;8.18;;;3.13;;
57199;SDS011;43061;43.902;22.266;2022-07-06T10:28:43;9.23;;;3.28;;
57199;SDS011;43061;43.902;22.266;2022-07-06T10:31:12;5.38;;;3.00;;
57199;SDS011;43061;43.902;22.266;2022-07-06T10:33:38;4.38;;;3.00;;
57199;SDS011;43061;43.902;22.266;2022-07-06T10:36:05;4.20;;;2.70;;
57199;SDS011;43061;43.902;22.266;2022-07-06T10:38:32;4.35;;;2.70;;
57199;SDS011;43061;43.902;22.266;2022-07-06T10:41:02;4.30;;;2.65;;
57199;SDS011;43061;43.902;22.266;2022-07-06T10:43:35;4.60;;;3.13;;
57199;SDS011;43061;43.902;22.266;2022-07-06T10:48:43;6.32;;;2.70;;
57199;SDS011;43061;43.902;22.266;2022-07-06T10:51:13;6.13;;;2.83;;
57199;SDS011;43061;43.902;22.266;2022-07-06T10:53:49;5.05;;;2.70;;
57199;SDS011;43061;43.902;22.266;2022-07-06T10:56:20;4.90;;;2.97;;
57199;SDS011;43061;43.902;22.266;2022-07-06T10:59:01;5.25;;;2.58;;
57199;SDS011;43061;43.902;22.266;2022-07-06T11:01:27;4.80;;;2.63;;
57199;SDS011;43061;43.902;22.266;2022-07-06T11:06:24;5.13;;;3.05;;
57199;SDS011;43061;43.902;22.266;2022-07-06T11:08:51;5.93;;;2.80;;
57199;SDS011;43061;43.902;22.266;2022-07-06T11:11:19;5.65;;;2.85;;
57199;SDS011;43061;43.902;22.266;2022-07-06T11:13:49;4.60;;;2.80;;
57199;SDS011;43061;43.902;22.266;2022-07-06T11:16:16;6.57;;;2.70;;
57199;SDS011;43061;43.902;22.266;2022-07-06T11:18:46;4.85;;;2.55;;
57199;SDS011;43061;43.902;22.266;2022-07-06T11:23:42;4.43;;;2.38;;
57199;SDS011;43061;43.902;22.266;2022-07-06T11:26:09;8.05;;;2.70;;
57199;SDS011;43061;43.902;22.266;2022-07-06T11:28:36;3.95;;;2.30;;
57199;SDS011;43061;43.902;22.266;2022-07-06T11:31:03;3.50;;;2.30;;
57199;SDS011;43061;43.902;22.266;2022-07-06T11:33:29;3.70;;;2.28;;
57199;SDS011;43061;43.902;22.266;2022-07-06T11:38:41;6.22;;;2.72;;
57199;SDS011;43061;43.902;22.266;2022-07-06T11:41:07;4.18;;;2.60;;
57199;SDS011;43061;43.902;22.266;2022-07-06T11:43:33;4.63;;;2.80;;
57199;SDS011;43061;43.902;22.266;2022-07-06T11:45:59;4.88;;;2.70;;
57199;SDS011;43061;43.902;22.266;2022-07-06T11:48:25;4.68;;;2.90;;
57199;SDS011;43061;43.902;22.266;2022-07-06T11:50:59;6.05;;;2.88;;
57199;SDS011;43061;43.902;22.266;2022-07-06T11:53:25;4.38;;;2.67;;
57199;SDS011;43061;43.902;22.266;2022-07-06T11:55:51;5.15;;;2.65;;
57199;SDS011;43061;43.902;22.266;2022-07-06T11:58:21;5.25;;;2.65;;
57199;SDS011;43061;43.902;22.266;2022-07-06T12:03:33;3.58;;;2.40;;
57199;SDS011;43061;43.902;22.266;2022-07-06T12:06:03;6.07;;;2.60;;
57199;SDS011;43061;43.902;22.266;2022-07-06T12:08:30;5.55;;;2.35;;
57199;SDS011;43061;43.902;22.266;2022-07-06T12:10:56;4.68;;;2.35;;
57199;SDS011;43061;43.902;22.266;2022-07-06T12:13:23;3.83;;;2.50;;
57199;SDS011;43061;43.902;22.266;2022-07-06T12:15:49;5.15;;;2.28;;
57199;SDS011;43061;43.902;22.266;2022-07-06T12:18:16;5.50;;;2.47;;
57199;SDS011;43061;43.902;22.266;2022-07-06T12:20:42;6.25;;;2.45;;
57199;SDS011;43061;43.902;22.266;2022-07-06T12:23:09;4.03;;;2.28;;
57199;SDS011;43061;43.902;22.266;2022-07-06T12:25:35;4.47;;;2.30;;
57199;SDS011;43061;43.902;22.266;2022-07-06T12:28:02;4.55;;;2.60;;
57199;SDS011;43061;43.902;22.266;2022-07-06T12:30:28;7.97;;;3.40;;
57199;SDS011;43061;43.902;22.266;2022-07-06T12:33:10;6.63;;;2.50;;
57199;SDS011;43061;43.902;22.266;2022-07-06T12:35:37;4.53;;;2.30;;
57199;SDS011;43061;43.902;22.266;2022-07-06T12:38:03;4.78;;;2.58;;
57199;SDS011;43061;43.902;22.266;2022-07-06T12:40:29;5.57;;;2.50;;
57199;SDS011;43061;43.902;22.266;2022-07-06T12:42:56;5.38;;;2.45;;
57199;SDS011;43061;43.902;22.266;2022-07-06T12:45:26;4.22;;;2.50;;
57199;SDS011;43061;43.902;22.266;2022-07-06T12:48:02;4.72;;;2.75;;
57199;SDS011;43061;43.902;22.266;2022-07-06T12:50:33;4.35;;;2.78;;
57199;SDS011;43061;43.902;22.266;2022-07-06T12:53:00;5.00;;;2.65;;
57199;SDS011;43061;43.902;22.266;2022-07-06T12:55:26;5.07;;;2.70;;
57199;SDS011;43061;43.902;22.266;2022-07-06T12:57:53;5.63;;;3.00;;
57199;SDS011;43061;43.902;22.266;2022-07-06T13:00:19;5.68;;;2.80;;
57199;SDS011;43061;43.902;22.266;2022-07-06T13:02:51;4.35;;;2.70;;
57199;SDS011;43061;43.902;22.266;2022-07-06T13:05:25;4.40;;;2.90;;
57199;SDS011;43061;43.902;22.266;2022-07-06T13:07:55;5.07;;;2.85;;
57199;SDS011;43061;43.902;22.266;2022-07-06T13:10:21;4.07;;;2.30;;
57199;SDS011;43061;43.902;22.266;2022-07-06T13:12:48;6.55;;;2.38;;
57199;SDS011;43061;43.902;22.266;2022-07-06T13:15:14;7.07;;;2.80;;
57199;SDS011;43061;43.902;22.266;2022-07-06T13:17:40;6.20;;;2.75;;
57199;SDS011;43061;43.902;22.266;2022-07-06T13:20:10;5.78;;;2.60;;
57199;SDS011;43061;43.902;22.266;2022-07-06T13:22:37;5.97;;;2.40;;
57199;SDS011;43061;43.902;22.266;2022-07-06T13:25:04;4.53;;;2.30;;
57199;SDS011;43061;43.902;22.266;2022-07-06T13:27:30;4.53;;;2.17;;
57199;SDS011;43061;43.902;22.266;2022-07-06T13:29:56;4.43;;;2.47;;
57199;SDS011;43061;43.902;22.266;2022-07-06T13:32:22;4.40;;;2.50;;
57199;SDS011;43061;43.902;22.266;2022-07-06T13:34:48;5.15;;;2.40;;
57199;SDS011;43061;43.902;22.266;2022-07-06T13:37:15;5.00;;;1.90;;
57199;SDS011;43061;43.902;22.266;2022-07-06T13:39:41;4.25;;;1.95;;
57199;SDS011;43061;43.902;22.266;2022-07-06T13:42:07;4.35;;;1.70;;
57199;SDS011;43061;43.902;22.266;2022-07-06T13:44:34;5.10;;;2.03;;
57199;SDS011;43061;43.902;22.266;2022-07-06T13:47:00;4.88;;;2.10;;
57199;SDS011;43061;43.902;22.266;2022-07-06T13:49:26;4.03;;;2.08;;
57199;SDS011;43061;43.902;22.266;2022-07-06T13:51:52;4.63;;;2.22;;
57199;SDS011;43061;43.902;22.266;2022-07-06T13:54:20;4.68;;;2.10;;
57199;SDS011;43061;43.902;22.266;2022-07-06T13:56:46;4.60;;;2.20;;
57199;SDS011;43061;43.902;22.266;2022-07-06T13:59:12;3.42;;;1.92;;
57199;SDS011;43061;43.902;22.266;2022-07-06T14:01:38;4.10;;;1.77;;
57199;SDS011;43061;43.902;22.266;2022-07-06T14:04:04;4.30;;;2.30;;
57199;SDS011;43061;43.902;22.266;2022-07-06T14:06:30;6.13;;;1.40;;
57199;SDS011;43061;43.902;22.266;2022-07-06T14:08:56;4.70;;;1.35;;
57199;SDS011;43061;43.902;22.266;2022-07-06T14:11:22;5.30;;;1.50;;
57199;SDS011;43061;43.902;22.266;2022-07-06T14:13:48;5.82;;;1.35;;
57199;SDS011;43061;43.902;22.266;2022-07-06T14:16:14;3.42;;;1.27;;
57199;SDS011;43061;43.902;22.266;2022-07-06T14:18:41;4.00;;;1.10;;
57199;SDS011;43061;43.902;22.266;2022-07-06T14:21:08;3.83;;;1.17;;
57199;SDS011;43061;43.902;22.266;2022-07-06T14:23:34;9.98;;;1.30;;
57199;SDS011;43061;43.902;22.266;2022-07-06T14:26:00;3.25;;;1.25;;
57199;SDS011;43061;43.902;22.266;2022-07-06T14:28:26;3.10;;;1.23;;
57199;SDS011;43061;43.902;22.266;2022-07-06T14:30:53;3.95;;;1.20;;
57199;SDS011;43061;43.902;22.266;2022-07-06T14:33:19;2.90;;;1.23;;
57199;SDS011;43061;43.902;22.266;2022-07-06T14:35:47;3.72;;;1.40;;
57199;SDS011;43061;43.902;22.266;2022-07-06T14:38:18;3.03;;;1.10;;
57199;SDS011;43061;43.902;22.266;2022-07-06T14:40:44;4.10;;;1.27;;
57199;SDS011;43061;43.902;22.266;2022-07-06T14:43:12;3.15;;;1.10;;
57199;SDS011;43061;43.902;22.266;2022-07-06T14:45:39;2.88;;;1.23;;